Time,TemperatureF,DewpointF,PressureIn,WindDirection,WindDirectionDegrees,WindSpeedMPH,WindSpeedGustMPH,Humidity,HourlyPrecipIn,Conditions,Clouds,dailyrainin,SolarRadiationWatts/m^2,SoftwareType,DateUTC
2013-02-02 00:02:00,21.0,8.0,-100.00,NNE,26,7.0,24.0,56,0.00,,,0.05,0.000000,,2013-02-02 07:02:00,
2013-02-02 00:11:00,21.0,8.0,-100.00,NNE,26,7.0,24.0,56,0.00,,,0.05,0.000000,,2013-02-02 07:11:00,
2013-02-02 00:21:00,21.0,8.0,-100.00,NNE,26,7.0,24.0,56,0.00,,,0.05,0.000000,,2013-02-02 07:21:00,
2013-02-02 00:31:00,21.0,8.0,-100.00,NNE,26,7.0,24.0,56,0.00,,,0.05,0.000000,,2013-02-02 07:31:00,
2013-02-02 00:40:00,23.0,4.0,-100.00,West,264,13.0,23.0,43,0.00,,,0.05,0.000000,,2013-02-02 07:40:00,
2013-02-02 01:01:00,23.0,4.0,-100.00,West,264,13.0,23.0,43,0.00,,,0.05,0.000000,,2013-02-02 08:01:00,
2013-02-02 01:11:00,23.0,4.0,-100.00,West,264,13.0,23.0,43,0.00,,,0.05,0.000000,,2013-02-02 08:11:00,
2013-02-02 01:21:00,23.0,4.0,-100.00,West,264,13.0,23.0,43,0.00,,,0.05,0.000000,,2013-02-02 08:21:00,
2013-02-02 01:31:00,23.0,4.0,-100.00,West,264,13.0,23.0,43,0.00,,,0.05,0.000000,,2013-02-02 08:31:00,
2013-02-02 02:01:00,23.0,4.0,-100.00,WNW,284,12.0,30.0,44,0.00,,,0.05,0.000000,,2013-02-02 09:01:00,
2013-02-02 02:11:00,23.0,4.0,-100.00,WNW,284,12.0,30.0,44,0.00,,,0.05,0.000000,,2013-02-02 09:11:00,
2013-02-02 02:22:00,23.0,4.0,-100.00,WNW,284,12.0,30.0,44,0.00,,,0.05,0.000000,,2013-02-02 09:22:00,
2013-02-02 02:31:00,23.0,4.0,-100.00,WNW,284,12.0,30.0,44,0.00,,,0.05,0.000000,,2013-02-02 09:31:00,
2013-02-02 02:40:00,22.0,8.0,-100.00,WSW,248,13.0,24.0,55,0.00,,,0.05,0.000000,,2013-02-02 09:40:00,
2013-02-02 03:01:00,22.0,8.0,-100.00,WSW,248,13.0,24.0,55,0.00,,,0.05,0.000000,,2013-02-02 10:01:00,
2013-02-02 03:11:00,22.0,8.0,-100.00,WSW,248,13.0,24.0,55,0.00,,,0.05,0.000000,,2013-02-02 10:11:00,
2013-02-02 03:21:00,22.0,8.0,-100.00,WSW,248,13.0,24.0,55,0.00,,,0.05,0.000000,,2013-02-02 10:21:00,
2013-02-02 03:31:00,22.0,8.0,-100.00,WSW,248,13.0,24.0,55,0.00,,,0.05,0.000000,,2013-02-02 10:31:00,
2013-02-02 04:01:00,24.0,7.0,-100.00,SW,235,13.0,29.0,47,0.00,,,0.05,0.000000,,2013-02-02 11:01:00,
2013-02-02 04:11:00,24.0,7.0,-100.00,SW,235,13.0,29.0,47,0.00,,,0.05,0.000000,,2013-02-02 11:11:00,
2013-02-02 04:21:00,24.0,7.0,-100.00,SW,235,13.0,29.0,47,0.00,,,0.05,0.000000,,2013-02-02 11:21:00,
2013-02-02 04:31:00,24.0,7.0,-100.00,SW,235,13.0,29.0,47,0.00,,,0.05,0.000000,,2013-02-02 11:31:00,
2013-02-02 05:01:00,22.0,8.0,-100.00,SW,220,12.0,26.0,53,-99.99,,,-99.99,0.000000,,2013-02-02 12:01:00,
2013-02-02 05:11:00,22.0,8.0,-100.00,SW,220,12.0,26.0,53,-99.99,,,-99.99,0.000000,,2013-02-02 12:11:00,
2013-02-02 05:22:00,22.0,8.0,-100.00,SW,220,12.0,26.0,53,-99.99,,,-99.99,0.000000,,2013-02-02 12:22:00,
2013-02-02 05:32:00,22.0,8.0,-100.00,SW,220,12.0,26.0,53,-99.99,,,-99.99,0.000000,,2013-02-02 12:32:00,
2013-02-02 06:02:00,23.0,7.0,-100.00,SW,217,10.0,23.0,50,0.00,,,0.05,0.000000,,2013-02-02 13:02:00,
2013-02-02 06:11:00,23.0,7.0,-100.00,SW,217,10.0,23.0,50,0.00,,,0.05,0.000000,,2013-02-02 13:11:00,
2013-02-02 06:21:00,23.0,7.0,-100.00,SW,217,10.0,23.0,50,0.00,,,0.05,0.000000,,2013-02-02 13:21:00,
2013-02-02 06:32:00,23.0,7.0,-100.00,SW,217,10.0,23.0,50,0.00,,,0.05,0.000000,,2013-02-02 13:32:00,
2013-02-02 07:02:00,23.0,9.0,-100.00,South,182,9.0,24.0,54,-99.99,,,0.05,0.000000,,2013-02-02 14:02:00,
2013-02-02 07:11:00,23.0,9.0,-100.00,South,182,9.0,24.0,54,-99.99,,,0.05,0.000000,,2013-02-02 14:11:00,
2013-02-02 07:22:00,23.0,9.0,-100.00,South,182,9.0,24.0,54,-99.99,,,0.05,0.000000,,2013-02-02 14:22:00,
2013-02-02 07:32:00,23.0,9.0,-100.00,South,182,9.0,24.0,54,-99.99,,,0.05,0.000000,,2013-02-02 14:32:00,
2013-02-02 08:03:00,23.0,10.0,-100.00,South,187,10.0,22.0,57,-99.99,,,0.05,1.000000,,2013-02-02 15:03:00,
2013-02-02 08:12:00,23.0,10.0,-100.00,South,187,10.0,22.0,57,-99.99,,,0.05,1.000000,,2013-02-02 15:12:00,
2013-02-02 08:21:00,23.0,10.0,-100.00,South,187,10.0,22.0,57,-99.99,,,0.05,1.000000,,2013-02-02 15:21:00,
2013-02-02 08:32:00,23.0,10.0,-100.00,South,187,10.0,22.0,57,-99.99,,,0.05,1.000000,,2013-02-02 15:32:00,
2013-02-02 09:02:00,28.0,11.0,-100.00,SSE,161,8.0,21.0,49,-99.99,,,0.05,47.000000,,2013-02-02 16:02:00,
2013-02-02 10:02:00,33.0,12.0,-100.00,ENE,67,5.0,16.0,42,-99.99,,,0.05,278.000000,,2013-02-02 17:02:00,
2013-02-02 11:02:00,33.0,14.0,-100.00,West,267,19.0,32.0,45,-99.99,,,0.05,449.000000,,2013-02-02 18:02:00,
2013-02-02 12:02:00,33.0,15.0,-100.00,WNW,282,24.0,39.0,48,-99.99,,,0.05,572.000000,,2013-02-02 19:02:00,
2013-02-02 13:01:00,35.0,16.0,-100.00,West,275,18.0,38.0,45,-99.99,,,0.03,633.000000,,2013-02-02 20:01:00,
2013-02-02 14:02:00,36.0,18.0,-100.00,SSW,207,10.0,30.0,47,-99.99,,,0.03,620.000000,,2013-02-02 21:02:00,
2013-02-02 15:02:00,35.0,16.0,-100.00,SW,226,5.0,17.0,45,-99.99,,,0.02,549.000000,,2013-02-02 22:02:00,
2013-02-02 16:01:00,34.0,17.0,-100.00,SW,214,5.0,16.0,50,-99.99,,,0.01,417.000000,,2013-02-02 23:01:00,
2013-02-02 16:11:00,34.0,17.0,-100.00,SW,214,5.0,16.0,50,-99.99,,,0.01,417.000000,,2013-02-02 23:11:00,
2013-02-02 16:21:00,34.0,17.0,-100.00,SW,214,5.0,16.0,50,-99.99,,,0.01,417.000000,,2013-02-02 23:21:00,
2013-02-02 16:32:00,34.0,17.0,-100.00,SW,214,5.0,16.0,50,-99.99,,,0.01,417.000000,,2013-02-02 23:32:00,
2013-02-02 16:40:00,32.0,17.0,-100.00,West,273,5.0,12.0,53,-99.99,,,0.01,217.000000,,2013-02-02 23:40:00,
2013-02-02 17:01:00,32.0,17.0,-100.00,West,273,5.0,12.0,53,-99.99,,,0.01,217.000000,,2013-02-03 00:01:00,
2013-02-02 17:11:00,32.0,17.0,-100.00,West,273,5.0,12.0,53,-99.99,,,0.01,217.000000,,2013-02-03 00:11:00,
2013-02-02 17:21:00,32.0,17.0,-100.00,West,273,5.0,12.0,53,-99.99,,,0.01,217.000000,,2013-02-03 00:21:00,
2013-02-02 17:31:00,32.0,17.0,-100.00,West,273,5.0,12.0,53,-99.99,,,0.01,217.000000,,2013-02-03 00:31:00,
2013-02-02 17:40:00,26.0,15.0,-100.00,West,268,2.0,9.0,62,0.00,,,0.01,11.000000,,2013-02-03 00:40:00,
2013-02-02 18:02:00,26.0,15.0,-100.00,West,268,2.0,9.0,62,0.00,,,0.01,11.000000,,2013-02-03 01:02:00,
2013-02-02 18:11:00,26.0,15.0,-100.00,West,268,2.0,9.0,62,0.00,,,0.01,11.000000,,2013-02-03 01:11:00,
2013-02-02 18:21:00,26.0,15.0,-100.00,West,268,2.0,9.0,62,0.00,,,0.01,11.000000,,2013-02-03 01:21:00,
2013-02-02 18:32:00,26.0,15.0,-100.00,West,268,2.0,9.0,62,0.00,,,0.01,11.000000,,2013-02-03 01:32:00,
2013-02-02 18:40:00,26.0,14.0,-100.00,West,266,8.0,16.0,59,0.00,,,-99.99,0.000000,,2013-02-03 01:40:00,
2013-02-02 19:01:00,26.0,14.0,-100.00,West,266,8.0,16.0,59,0.00,,,-99.99,0.000000,,2013-02-03 02:01:00,
2013-02-02 19:11:00,26.0,14.0,-100.00,West,266,8.0,16.0,59,0.00,,,-99.99,0.000000,,2013-02-03 02:11:00,
2013-02-02 19:21:00,26.0,14.0,-100.00,West,266,8.0,16.0,59,0.00,,,-99.99,0.000000,,2013-02-03 02:21:00,
2013-02-02 19:31:00,26.0,14.0,-100.00,West,266,8.0,16.0,59,0.00,,,-99.99,0.000000,,2013-02-03 02:31:00,
2013-02-02 19:40:00,25.0,16.0,-100.00,SW,219,13.0,21.0,67,0.00,,,0.01,0.000000,,2013-02-03 02:40:00,
2013-02-02 20:02:00,25.0,16.0,-100.00,SW,219,13.0,21.0,67,0.00,,,0.01,0.000000,,2013-02-03 03:02:00,
2013-02-02 20:11:00,25.0,16.0,-100.00,SW,219,13.0,21.0,67,0.00,,,0.01,0.000000,,2013-02-03 03:11:00,
2013-02-02 20:21:00,25.0,16.0,-100.00,SW,219,13.0,21.0,67,0.00,,,0.01,0.000000,,2013-02-03 03:21:00,
2013-02-02 20:31:00,25.0,16.0,-100.00,SW,219,13.0,21.0,67,0.00,,,0.01,0.000000,,2013-02-03 03:31:00,
2013-02-02 21:01:00,27.0,11.0,-100.00,WNW,293,17.0,33.0,51,0.00,,,-99.99,0.000000,,2013-02-03 04:01:00,
2013-02-02 21:11:00,27.0,11.0,-100.00,WNW,293,17.0,33.0,51,0.00,,,-99.99,0.000000,,2013-02-03 04:11:00,
2013-02-02 21:21:00,27.0,11.0,-100.00,WNW,293,17.0,33.0,51,0.00,,,-99.99,0.000000,,2013-02-03 04:21:00,
2013-02-02 21:31:00,27.0,11.0,-100.00,WNW,293,17.0,33.0,51,0.00,,,-99.99,0.000000,,2013-02-03 04:31:00,
2013-02-02 22:03:00,27.0,10.0,-100.00,West,281,17.0,31.0,49,-99.99,,,0.01,0.000000,,2013-02-03 05:03:00,
2013-02-02 22:11:00,27.0,10.0,-100.00,West,281,17.0,31.0,49,-99.99,,,0.01,0.000000,,2013-02-03 05:11:00,
2013-02-02 22:22:00,27.0,10.0,-100.00,West,281,17.0,31.0,49,-99.99,,,0.01,0.000000,,2013-02-03 05:22:00,
2013-02-02 22:32:00,27.0,10.0,-100.00,West,281,17.0,31.0,49,-99.99,,,0.01,0.000000,,2013-02-03 05:32:00,
2013-02-02 23:02:00,28.0,8.0,-100.00,West,275,16.0,34.0,42,-99.99,,,0.01,0.000000,,2013-02-03 06:02:00,
2013-02-02 23:11:00,28.0,8.0,-100.00,West,275,16.0,34.0,42,-99.99,,,0.01,0.000000,,2013-02-03 06:11:00,
2013-02-02 23:21:00,28.0,8.0,-100.00,West,275,16.0,34.0,42,-99.99,,,0.01,0.000000,,2013-02-03 06:21:00,
2013-02-02 23:31:00,28.0,8.0,-100.00,West,275,16.0,34.0,42,-99.99,,,0.01,0.000000,,2013-02-03 06:31:00,